Sterling — ZJL6396 — position and weather

sailwx.info

Track history (hours):
 
Tides and Currents Weather Stations Pressure Air Temp Water Temp Dewpoint Dewpoint Depression Visibility Wind Speed Wind Dir Waves Ship Positions

Sterling

Last reported at 2017-Sep-04 20:37 UTC. Time now 2017-Nov-21 21:10 UTC.
Position N 18°25' W 064°37'.
Warning: this ship's position is months out of date.

Length 30 m.

Type: Passenger vessel. MMSI: 378111236.

Date/timePositionNaut miles runAvg speedWind from/ knotsBaromVisibWave heightAir tempDewpointWater temp
2017-Sep-04 20:37N 18°25' W 064°37'224.2
2017-Sep-04 20:30N 18°23' W 064°39'713.7
2017-Sep-04 20:00N 18°22' W 064°46'8 2.5
2017-Sep-04 16:44N 18°18' W 064°54'523.1
2017-Sep-04 16:30N 18°20' W 064°49'713.6
2017-Sep-04 16:00N 18°23' W 064°42'6 0.3
2017-Sep-03 20:47N 18°25' W 064°37'620.7
2017-Sep-03 20:30N 18°23' W 064°42'714.5
2017-Sep-03 20:01N 18°20' W 064°49'5 1.6
2017-Sep-03 17:07N 18°18' W 064°54'323.5
2017-Sep-03 17:01N 18°18' W 064°51'1019.5
2017-Sep-03 16:30N 18°23' W 064°42'5 0.2
2017-Sep-02 14:35N 18°24' W 064°37'117.8
2017-Sep-02 14:30N 18°24' W 064°38'4 8.7
2017-Sep-02 14:01N 18°23' W 064°42'  
2017-Aug-29 20:29N 18°25' W 064°37'1123.2
2017-Aug-29 20:00N 18°21' W 064°48'5 1.0
2017-Aug-29 14:41N 18°18' W 064°53'423.2
2017-Aug-29 14:31N 18°20' W 064°49'815.5
2017-Aug-29 14:01N 18°23' W 064°41'5 0.3
2017-Aug-28 20:48N 18°25' W 064°37'517.9
2017-Aug-28 20:30N 18°23' W 064°42'1120.0
2017-Aug-28 19:58N 18°18' W 064°52'2 0.3
2017-Aug-28 14:40N 18°18' W 064°54'424.2
2017-Aug-28 14:30N 18°19' W 064°50'917.8
2017-Aug-28 14:01N 18°23' W 064°41'5 0.2
2017-Aug-27 19:27N 18°24' W 064°37'512.4
2017-Aug-27 19:00N 18°23' W 064°42'12 5.3
2017-Aug-27 16:48N 18°18' W 064°54'722.6
2017-Aug-27 16:30N 18°21' W 064°47'510.3
2017-Aug-27 16:00N 18°23' W 064°42'5 0.3
2017-Aug-26 20:54N 18°25' W 064°37'513.9
2017-Aug-26 20:30N 18°23' W 064°42'1119.1
2017-Aug-26 19:57N 18°18' W 064°52'0 0.1
2017-Aug-26 14:41N 18°18' W 064°53'1116.2
2017-Aug-26 14:01N 18°23' W 064°42'5 0.3
2017-Aug-25 20:39N 18°24' W 064°37'  
Track history (hours):
 
Tides and Currents Weather Stations Pressure Air Temp Water Temp Dewpoint Dewpoint Depression Visibility Wind Speed Wind Dir Waves Ship Positions

Sterling

Last reported at 2017-Sep-04 20:37 UTC. Time now 2017-Nov-21 21:10 UTC.
Position N 18°25' W 064°37'.
Warning: this ship's position is months out of date.

Length 30 m.

Type: Passenger vessel. MMSI: 378111236.

Date/timePositionNaut miles runAvg speedWind from/ knotsBaromVisibWave heightAir tempDewpointWater temp
2017-Sep-04 20:37N 18°25' W 064°37'224.2
2017-Sep-04 20:30N 18°23' W 064°39'713.7
2017-Sep-04 20:00N 18°22' W 064°46'8 2.5
2017-Sep-04 16:44N 18°18' W 064°54'523.1
2017-Sep-04 16:30N 18°20' W 064°49'713.6
2017-Sep-04 16:00N 18°23' W 064°42'6 0.3
2017-Sep-03 20:47N 18°25' W 064°37'620.7
2017-Sep-03 20:30N 18°23' W 064°42'714.5
2017-Sep-03 20:01N 18°20' W 064°49'5 1.6
2017-Sep-03 17:07N 18°18' W 064°54'323.5
2017-Sep-03 17:01N 18°18' W 064°51'1019.5
2017-Sep-03 16:30N 18°23' W 064°42'5 0.2
2017-Sep-02 14:35N 18°24' W 064°37'117.8
2017-Sep-02 14:30N 18°24' W 064°38'4 8.7
2017-Sep-02 14:01N 18°23' W 064°42'  
2017-Aug-29 20:29N 18°25' W 064°37'1123.2
2017-Aug-29 20:00N 18°21' W 064°48'5 1.0
2017-Aug-29 14:41N 18°18' W 064°53'423.2
2017-Aug-29 14:31N 18°20' W 064°49'815.5
2017-Aug-29 14:01N 18°23' W 064°41'5 0.3
2017-Aug-28 20:48N 18°25' W 064°37'517.9
2017-Aug-28 20:30N 18°23' W 064°42'1120.0
2017-Aug-28 19:58N 18°18' W 064°52'2 0.3
2017-Aug-28 14:40N 18°18' W 064°54'424.2
2017-Aug-28 14:30N 18°19' W 064°50'917.8
2017-Aug-28 14:01N 18°23' W 064°41'5 0.2
2017-Aug-27 19:27N 18°24' W 064°37'512.4
2017-Aug-27 19:00N 18°23' W 064°42'12 5.3
2017-Aug-27 16:48N 18°18' W 064°54'722.6
2017-Aug-27 16:30N 18°21' W 064°47'510.3
2017-Aug-27 16:00N 18°23' W 064°42'5 0.3
2017-Aug-26 20:54N 18°25' W 064°37'513.9
2017-Aug-26 20:30N 18°23' W 064°42'1119.1
2017-Aug-26 19:57N 18°18' W 064°52'0 0.1
2017-Aug-26 14:41N 18°18' W 064°53'1116.2
2017-Aug-26 14:01N 18°23' W 064°42'5 0.3
2017-Aug-25 20:39N 18°24' W 064°37'  

Dump ship's entire track history